Skovorodino, Russia
Current Conditions -  °F | °C
As of 6:00 AM on Sunday 23 Nov 2014 (Local Time) from UHBB Reporting Station
Clear Clear  
Wind Chill: -4°   Ceiling: Unl
Heat Index: -4°   Visibility: 6mi
Dew Point: -6°   Wind: 2mph
Humidity: 92%   Direction: NA
Pressure: 30.15"   Gusts: NA
Location:  53.98°N, 123.92°E
Report Text: UHBB 222100Z VRB01MPS CAVOK M20/M21 Q1021 NOSIG RMK QFE748/099736810350
Loading
Personal Weather Stations






























Interactive Weather Map New forecast layout! Learn more

10-Day Weather Forecast

Advertisements
Track Severe Weather on mobile